sensor_id;sensor_type;location;lat;lon;timestamp;P1;durP1;ratioP1;P2;durP2;ratioP2
25657;SDS011;13517;59.320;18.042;2022-12-29T00:01:45;45.25;;;7.40;;
25657;SDS011;13517;59.320;18.042;2022-12-29T00:04:14;30.40;;;6.68;;
25657;SDS011;13517;59.320;18.042;2022-12-29T00:06:40;32.95;;;6.78;;
25657;SDS011;13517;59.320;18.042;2022-12-29T00:09:06;228.52;;;12.25;;
25657;SDS011;13517;59.320;18.042;2022-12-29T00:11:32;80.40;;;8.90;;
25657;SDS011;13517;59.320;18.042;2022-12-29T00:13:57;113.65;;;9.73;;
25657;SDS011;13517;59.320;18.042;2022-12-29T00:16:42;74.10;;;7.68;;
25657;SDS011;13517;59.320;18.042;2022-12-29T00:19:09;92.00;;;10.10;;
25657;SDS011;13517;59.320;18.042;2022-12-29T00:21:55;71.53;;;8.32;;
25657;SDS011;13517;59.320;18.042;2022-12-29T00:24:40;119.85;;;9.63;;
25657;SDS011;13517;59.320;18.042;2022-12-29T00:27:25;70.50;;;8.93;;
25657;SDS011;13517;59.320;18.042;2022-12-29T00:30:13;153.70;;;11.48;;
25657;SDS011;13517;59.320;18.042;2022-12-29T00:33:35;133.55;;;10.07;;
25657;SDS011;13517;59.320;18.042;2022-12-29T00:36:16;206.50;;;12.38;;
25657;SDS011;13517;59.320;18.042;2022-12-29T00:39:12;199.60;;;11.52;;
25657;SDS011;13517;59.320;18.042;2022-12-29T00:42:03;121.85;;;8.70;;
25657;SDS011;13517;59.320;18.042;2022-12-29T00:44:48;132.68;;;8.80;;
25657;SDS011;13517;59.320;18.042;2022-12-29T00:47:13;172.85;;;10.27;;
25657;SDS011;13517;59.320;18.042;2022-12-29T00:49:39;196.60;;;11.73;;
25657;SDS011;13517;59.320;18.042;2022-12-29T00:52:06;171.43;;;13.05;;
25657;SDS011;13517;59.320;18.042;2022-12-29T00:54:33;267.88;;;15.63;;
25657;SDS011;13517;59.320;18.042;2022-12-29T00:57:00;292.63;;;15.88;;
25657;SDS011;13517;59.320;18.042;2022-12-29T00:59:26;136.43;;;10.10;;
25657;SDS011;13517;59.320;18.042;2022-12-29T01:01:52;116.18;;;10.93;;
25657;SDS011;13517;59.320;18.042;2022-12-29T01:04:19;155.85;;;10.23;;
25657;SDS011;13517;59.320;18.042;2022-12-29T01:06:45;86.28;;;9.32;;
25657;SDS011;13517;59.320;18.042;2022-12-29T01:09:11;114.13;;;9.45;;
25657;SDS011;13517;59.320;18.042;2022-12-29T01:11:55;64.15;;;8.90;;
25657;SDS011;13517;59.320;18.042;2022-12-29T01:14:21;80.63;;;8.35;;
25657;SDS011;13517;59.320;18.042;2022-12-29T01:16:47;88.82;;;9.38;;
25657;SDS011;13517;59.320;18.042;2022-12-29T01:19:13;117.07;;;10.10;;
25657;SDS011;13517;59.320;18.042;2022-12-29T01:21:39;134.57;;;9.75;;
25657;SDS011;13517;59.320;18.042;2022-12-29T01:24:05;136.98;;;10.35;;
25657;SDS011;13517;59.320;18.042;2022-12-29T01:26:30;88.10;;;9.57;;
25657;SDS011;13517;59.320;18.042;2022-12-29T01:28:56;104.18;;;10.52;;
25657;SDS011;13517;59.320;18.042;2022-12-29T01:31:21;135.30;;;10.68;;
25657;SDS011;13517;59.320;18.042;2022-12-29T01:33:47;148.73;;;11.52;;
25657;SDS011;13517;59.320;18.042;2022-12-29T01:36:13;157.85;;;11.48;;
25657;SDS011;13517;59.320;18.042;2022-12-29T01:38:40;171.65;;;11.88;;
25657;SDS011;13517;59.320;18.042;2022-12-29T01:41:07;136.98;;;10.15;;
25657;SDS011;13517;59.320;18.042;2022-12-29T01:43:53;115.55;;;11.30;;
25657;SDS011;13517;59.320;18.042;2022-12-29T01:51:33;73.68;;;8.40;;
25657;SDS011;13517;59.320;18.042;2022-12-29T01:54:05;99.47;;;9.90;;
25657;SDS011;13517;59.320;18.042;2022-12-29T01:56:36;96.57;;;9.48;;
25657;SDS011;13517;59.320;18.042;2022-12-29T01:59:04;47.65;;;8.07;;
25657;SDS011;13517;59.320;18.042;2022-12-29T02:01:34;73.40;;;8.32;;
25657;SDS011;13517;59.320;18.042;2022-12-29T02:03:59;30.52;;;6.15;;
25657;SDS011;13517;59.320;18.042;2022-12-29T02:06:30;51.17;;;7.50;;
25657;SDS011;13517;59.320;18.042;2022-12-29T02:09:00;28.38;;;5.90;;
25657;SDS011;13517;59.320;18.042;2022-12-29T02:11:26;17.73;;;5.97;;
25657;SDS011;13517;59.320;18.042;2022-12-29T02:13:53;20.70;;;6.20;;
25657;SDS011;13517;59.320;18.042;2022-12-29T02:22:12;16.77;;;5.15;;
25657;SDS011;13517;59.320;18.042;2022-12-29T02:35:45;17.38;;;6.07;;
25657;SDS011;13517;59.320;18.042;2022-12-29T02:41:05;15.50;;;5.38;;
25657;SDS011;13517;59.320;18.042;2022-12-29T02:43:59;21.35;;;5.95;;
25657;SDS011;13517;59.320;18.042;2022-12-29T02:49:21;22.20;;;6.63;;
25657;SDS011;13517;59.320;18.042;2022-12-29T02:52:03;17.75;;;4.53;;
25657;SDS011;13517;59.320;18.042;2022-12-29T02:54:32;19.48;;;5.53;;
25657;SDS011;13517;59.320;18.042;2022-12-29T02:57:11;20.33;;;6.35;;
25657;SDS011;13517;59.320;18.042;2022-12-29T03:19:41;27.63;;;9.38;;
25657;SDS011;13517;59.320;18.042;2022-12-29T03:22:14;28.75;;;8.13;;
25657;SDS011;13517;59.320;18.042;2022-12-29T03:28:39;29.27;;;7.40;;
25657;SDS011;13517;59.320;18.042;2022-12-29T03:31:01;24.20;;;8.52;;
25657;SDS011;13517;59.320;18.042;2022-12-29T03:33:28;24.08;;;8.65;;
25657;SDS011;13517;59.320;18.042;2022-12-29T03:35:59;24.85;;;7.75;;
25657;SDS011;13517;59.320;18.042;2022-12-29T03:41:20;21.83;;;8.07;;
25657;SDS011;13517;59.320;18.042;2022-12-29T03:43:50;23.02;;;8.25;;
25657;SDS011;13517;59.320;18.042;2022-12-29T03:46:16;18.73;;;7.72;;
25657;SDS011;13517;59.320;18.042;2022-12-29T03:48:41;20.55;;;8.73;;
25657;SDS011;13517;59.320;18.042;2022-12-29T03:51:06;22.75;;;8.63;;
25657;SDS011;13517;59.320;18.042;2022-12-29T03:53:32;19.42;;;9.13;;
25657;SDS011;13517;59.320;18.042;2022-12-29T03:55:57;18.33;;;8.13;;
25657;SDS011;13517;59.320;18.042;2022-12-29T03:58:23;20.58;;;8.52;;
25657;SDS011;13517;59.320;18.042;2022-12-29T04:00:48;17.73;;;8.15;;
25657;SDS011;13517;59.320;18.042;2022-12-29T04:03:13;20.52;;;8.82;;
25657;SDS011;13517;59.320;18.042;2022-12-29T04:05:39;19.52;;;8.73;;
25657;SDS011;13517;59.320;18.042;2022-12-29T04:08:04;18.95;;;9.05;;
25657;SDS011;13517;59.320;18.042;2022-12-29T04:10:30;20.23;;;8.75;;
25657;SDS011;13517;59.320;18.042;2022-12-29T04:12:55;18.00;;;9.07;;
25657;SDS011;13517;59.320;18.042;2022-12-29T04:15:21;19.80;;;9.07;;
25657;SDS011;13517;59.320;18.042;2022-12-29T04:17:48;15.02;;;8.40;;
25657;SDS011;13517;59.320;18.042;2022-12-29T04:20:13;21.33;;;8.68;;
25657;SDS011;13517;59.320;18.042;2022-12-29T04:23:01;17.15;;;8.68;;
25657;SDS011;13517;59.320;18.042;2022-12-29T04:25:30;19.40;;;8.18;;
25657;SDS011;13517;59.320;18.042;2022-12-29T04:27:56;24.90;;;9.50;;
25657;SDS011;13517;59.320;18.042;2022-12-29T04:30:22;17.15;;;9.35;;
25657;SDS011;13517;59.320;18.042;2022-12-29T04:32:47;17.88;;;9.27;;
25657;SDS011;13517;59.320;18.042;2022-12-29T04:35:13;16.25;;;9.75;;
25657;SDS011;13517;59.320;18.042;2022-12-29T04:37:38;17.48;;;8.80;;
25657;SDS011;13517;59.320;18.042;2022-12-29T04:40:04;16.33;;;8.45;;
25657;SDS011;13517;59.320;18.042;2022-12-29T04:42:29;16.30;;;8.85;;
25657;SDS011;13517;59.320;18.042;2022-12-29T04:44:55;16.15;;;9.10;;
25657;SDS011;13517;59.320;18.042;2022-12-29T04:47:20;18.58;;;9.35;;
25657;SDS011;13517;59.320;18.042;2022-12-29T04:49:46;19.25;;;9.50;;
25657;SDS011;13517;59.320;18.042;2022-12-29T04:52:11;24.55;;;9.95;;
25657;SDS011;13517;59.320;18.042;2022-12-29T04:54:37;19.45;;;9.60;;
25657;SDS011;13517;59.320;18.042;2022-12-29T04:57:02;14.98;;;8.50;;
25657;SDS011;13517;59.320;18.042;2022-12-29T04:59:27;17.67;;;9.20;;
25657;SDS011;13517;59.320;18.042;2022-12-29T05:01:53;21.25;;;9.57;;
25657;SDS011;13517;59.320;18.042;2022-12-29T05:04:18;15.65;;;9.18;;
25657;SDS011;13517;59.320;18.042;2022-12-29T05:06:44;17.55;;;9.90;;
25657;SDS011;13517;59.320;18.042;2022-12-29T05:09:09;14.93;;;8.52;;
25657;SDS011;13517;59.320;18.042;2022-12-29T05:11:35;16.17;;;9.20;;
25657;SDS011;13517;59.320;18.042;2022-12-29T05:14:00;17.52;;;8.95;;
25657;SDS011;13517;59.320;18.042;2022-12-29T05:16:25;19.45;;;8.23;;
25657;SDS011;13517;59.320;18.042;2022-12-29T05:18:51;18.05;;;9.35;;
25657;SDS011;13517;59.320;18.042;2022-12-29T05:21:16;16.35;;;8.77;;
25657;SDS011;13517;59.320;18.042;2022-12-29T05:23:42;17.60;;;9.63;;
25657;SDS011;13517;59.320;18.042;2022-12-29T05:26:07;16.80;;;9.13;;
25657;SDS011;13517;59.320;18.042;2022-12-29T05:28:33;20.00;;;9.48;;
25657;SDS011;13517;59.320;18.042;2022-12-29T05:30:58;17.90;;;9.40;;
25657;SDS011;13517;59.320;18.042;2022-12-29T05:33:23;17.17;;;8.82;;
25657;SDS011;13517;59.320;18.042;2022-12-29T05:35:49;19.58;;;8.43;;
25657;SDS011;13517;59.320;18.042;2022-12-29T05:38:14;18.30;;;8.85;;
25657;SDS011;13517;59.320;18.042;2022-12-29T05:40:39;21.48;;;9.43;;
25657;SDS011;13517;59.320;18.042;2022-12-29T05:43:05;15.85;;;8.65;;
25657;SDS011;13517;59.320;18.042;2022-12-29T05:45:30;16.38;;;8.50;;
25657;SDS011;13517;59.320;18.042;2022-12-29T05:47:56;16.40;;;8.68;;
25657;SDS011;13517;59.320;18.042;2022-12-29T05:50:21;18.35;;;8.20;;
25657;SDS011;13517;59.320;18.042;2022-12-29T05:52:47;17.83;;;8.57;;
25657;SDS011;13517;59.320;18.042;2022-12-29T05:55:12;18.48;;;8.30;;
25657;SDS011;13517;59.320;18.042;2022-12-29T05:57:38;19.83;;;8.90;;
25657;SDS011;13517;59.320;18.042;2022-12-29T06:00:04;18.92;;;7.65;;
25657;SDS011;13517;59.320;18.042;2022-12-29T06:02:30;18.08;;;8.38;;
25657;SDS011;13517;59.320;18.042;2022-12-29T06:04:56;15.65;;;7.63;;
25657;SDS011;13517;59.320;18.042;2022-12-29T06:07:21;19.08;;;8.10;;
25657;SDS011;13517;59.320;18.042;2022-12-29T06:09:47;19.40;;;8.48;;
25657;SDS011;13517;59.320;18.042;2022-12-29T06:12:12;18.13;;;7.93;;
25657;SDS011;13517;59.320;18.042;2022-12-29T06:14:37;16.25;;;8.13;;
25657;SDS011;13517;59.320;18.042;2022-12-29T06:17:03;21.80;;;8.35;;
25657;SDS011;13517;59.320;18.042;2022-12-29T06:19:28;16.17;;;7.55;;
25657;SDS011;13517;59.320;18.042;2022-12-29T06:21:54;23.02;;;7.82;;
25657;SDS011;13517;59.320;18.042;2022-12-29T06:24:20;19.55;;;8.70;;
25657;SDS011;13517;59.320;18.042;2022-12-29T06:26:46;20.80;;;8.13;;
25657;SDS011;13517;59.320;18.042;2022-12-29T06:29:11;19.20;;;8.45;;
25657;SDS011;13517;59.320;18.042;2022-12-29T06:31:38;18.88;;;8.40;;
25657;SDS011;13517;59.320;18.042;2022-12-29T06:34:03;28.35;;;7.93;;
25657;SDS011;13517;59.320;18.042;2022-12-29T06:36:29;27.90;;;8.15;;
25657;SDS011;13517;59.320;18.042;2022-12-29T06:38:54;23.10;;;8.30;;
25657;SDS011;13517;59.320;18.042;2022-12-29T06:41:20;27.58;;;8.68;;
25657;SDS011;13517;59.320;18.042;2022-12-29T06:43:45;28.65;;;8.82;;
25657;SDS011;13517;59.320;18.042;2022-12-29T06:46:11;24.33;;;8.07;;
25657;SDS011;13517;59.320;18.042;2022-12-29T06:48:36;31.05;;;8.25;;
25657;SDS011;13517;59.320;18.042;2022-12-29T06:51:01;32.80;;;8.60;;
25657;SDS011;13517;59.320;18.042;2022-12-29T06:53:27;23.45;;;8.63;;
25657;SDS011;13517;59.320;18.042;2022-12-29T06:55:52;23.90;;;9.20;;
25657;SDS011;13517;59.320;18.042;2022-12-29T06:58:18;25.45;;;7.75;;
25657;SDS011;13517;59.320;18.042;2022-12-29T07:00:43;26.08;;;8.95;;
25657;SDS011;13517;59.320;18.042;2022-12-29T07:03:09;21.65;;;8.43;;
25657;SDS011;13517;59.320;18.042;2022-12-29T07:05:34;31.90;;;8.68;;
25657;SDS011;13517;59.320;18.042;2022-12-29T07:08:00;32.35;;;10.60;;
25657;SDS011;13517;59.320;18.042;2022-12-29T07:10:25;29.65;;;9.45;;
25657;SDS011;13517;59.320;18.042;2022-12-29T07:12:51;38.40;;;10.10;;
25657;SDS011;13517;59.320;18.042;2022-12-29T07:15:17;49.58;;;11.23;;
25657;SDS011;13517;59.320;18.042;2022-12-29T07:17:42;37.33;;;11.70;;
25657;SDS011;13517;59.320;18.042;2022-12-29T07:20:08;66.25;;;12.45;;
25657;SDS011;13517;59.320;18.042;2022-12-29T07:22:34;114.60;;;13.57;;
25657;SDS011;13517;59.320;18.042;2022-12-29T07:24:59;114.63;;;15.23;;
25657;SDS011;13517;59.320;18.042;2022-12-29T07:27:25;41.00;;;12.43;;
25657;SDS011;13517;59.320;18.042;2022-12-29T07:29:50;189.70;;;20.00;;
25657;SDS011;13517;59.320;18.042;2022-12-29T07:32:16;96.20;;;15.57;;
25657;SDS011;13517;59.320;18.042;2022-12-29T07:34:41;79.75;;;14.57;;
25657;SDS011;13517;59.320;18.042;2022-12-29T07:37:06;41.00;;;13.77;;
25657;SDS011;13517;59.320;18.042;2022-12-29T07:39:32;47.03;;;13.07;;
25657;SDS011;13517;59.320;18.042;2022-12-29T07:41:57;117.72;;;17.38;;
25657;SDS011;13517;59.320;18.042;2022-12-29T07:44:23;59.17;;;14.30;;
25657;SDS011;13517;59.320;18.042;2022-12-29T07:46:48;76.88;;;15.70;;
25657;SDS011;13517;59.320;18.042;2022-12-29T07:49:13;114.38;;;15.48;;
25657;SDS011;13517;59.320;18.042;2022-12-29T07:51:39;61.60;;;16.95;;
25657;SDS011;13517;59.320;18.042;2022-12-29T07:54:04;51.25;;;13.25;;
25657;SDS011;13517;59.320;18.042;2022-12-29T07:56:30;62.95;;;18.77;;
25657;SDS011;13517;59.320;18.042;2022-12-29T07:58:55;50.78;;;14.05;;
25657;SDS011;13517;59.320;18.042;2022-12-29T08:01:20;47.28;;;12.80;;
25657;SDS011;13517;59.320;18.042;2022-12-29T08:03:48;46.00;;;13.93;;
25657;SDS011;13517;59.320;18.042;2022-12-29T08:06:13;28.83;;;10.52;;
25657;SDS011;13517;59.320;18.042;2022-12-29T08:08:39;35.13;;;11.10;;
25657;SDS011;13517;59.320;18.042;2022-12-29T08:11:04;34.13;;;11.02;;
25657;SDS011;13517;59.320;18.042;2022-12-29T08:13:30;29.13;;;10.85;;
25657;SDS011;13517;59.320;18.042;2022-12-29T08:15:57;23.80;;;9.30;;
25657;SDS011;13517;59.320;18.042;2022-12-29T08:18:22;31.30;;;9.98;;
25657;SDS011;13517;59.320;18.042;2022-12-29T08:20:48;26.02;;;8.88;;
25657;SDS011;13517;59.320;18.042;2022-12-29T08:23:13;23.73;;;8.23;;
25657;SDS011;13517;59.320;18.042;2022-12-29T08:25:39;18.30;;;8.52;;
25657;SDS011;13517;59.320;18.042;2022-12-29T08:28:04;14.48;;;6.65;;
25657;SDS011;13517;59.320;18.042;2022-12-29T08:30:29;13.95;;;6.60;;
25657;SDS011;13517;59.320;18.042;2022-12-29T08:32:55;16.55;;;7.20;;
25657;SDS011;13517;59.320;18.042;2022-12-29T08:35:20;15.18;;;6.60;;
25657;SDS011;13517;59.320;18.042;2022-12-29T08:37:46;19.13;;;6.18;;
25657;SDS011;13517;59.320;18.042;2022-12-29T08:40:11;15.95;;;7.03;;
25657;SDS011;13517;59.320;18.042;2022-12-29T08:42:36;17.05;;;6.20;;
25657;SDS011;13517;59.320;18.042;2022-12-29T08:45:02;19.63;;;6.63;;
25657;SDS011;13517;59.320;18.042;2022-12-29T08:47:28;23.55;;;6.82;;
25657;SDS011;13517;59.320;18.042;2022-12-29T08:49:53;16.25;;;6.55;;
25657;SDS011;13517;59.320;18.042;2022-12-29T08:52:18;18.05;;;7.28;;
25657;SDS011;13517;59.320;18.042;2022-12-29T08:54:44;17.70;;;7.47;;
25657;SDS011;13517;59.320;18.042;2022-12-29T08:57:09;27.58;;;7.68;;
25657;SDS011;13517;59.320;18.042;2022-12-29T08:59:35;22.20;;;9.40;;
25657;SDS011;13517;59.320;18.042;2022-12-29T09:02:00;16.20;;;7.18;;
25657;SDS011;13517;59.320;18.042;2022-12-29T09:04:26;16.70;;;6.72;;
25657;SDS011;13517;59.320;18.042;2022-12-29T09:06:52;17.13;;;6.68;;
25657;SDS011;13517;59.320;18.042;2022-12-29T09:09:18;13.52;;;6.32;;
25657;SDS011;13517;59.320;18.042;2022-12-29T09:11:44;14.45;;;6.32;;
25657;SDS011;13517;59.320;18.042;2022-12-29T09:14:10;12.13;;;6.70;;
25657;SDS011;13517;59.320;18.042;2022-12-29T09:16:35;11.02;;;4.88;;
25657;SDS011;13517;59.320;18.042;2022-12-29T09:19:01;10.15;;;5.10;;
25657;SDS011;13517;59.320;18.042;2022-12-29T09:21:27;10.82;;;5.10;;
25657;SDS011;13517;59.320;18.042;2022-12-29T09:23:53;9.50;;;4.30;;
25657;SDS011;13517;59.320;18.042;2022-12-29T09:26:18;10.80;;;4.65;;
25657;SDS011;13517;59.320;18.042;2022-12-29T09:28:44;7.13;;;3.95;;
25657;SDS011;13517;59.320;18.042;2022-12-29T09:31:09;5.35;;;3.28;;
25657;SDS011;13517;59.320;18.042;2022-12-29T09:33:35;6.35;;;3.28;;
25657;SDS011;13517;59.320;18.042;2022-12-29T09:36:01;6.05;;;3.35;;
25657;SDS011;13517;59.320;18.042;2022-12-29T09:38:27;5.15;;;3.53;;
25657;SDS011;13517;59.320;18.042;2022-12-29T09:41:36;6.38;;;3.63;;
25657;SDS011;13517;59.320;18.042;2022-12-29T09:44:20;6.60;;;4.15;;
25657;SDS011;13517;59.320;18.042;2022-12-29T09:46:55;6.82;;;3.70;;
25657;SDS011;13517;59.320;18.042;2022-12-29T09:51:56;11.30;;;5.82;;
25657;SDS011;13517;59.320;18.042;2022-12-29T09:55:12;15.85;;;6.82;;
25657;SDS011;13517;59.320;18.042;2022-12-29T09:57:13;12.90;;;5.43;;
25657;SDS011;13517;59.320;18.042;2022-12-29T09:59:42;11.93;;;5.32;;
25657;SDS011;13517;59.320;18.042;2022-12-29T10:02:23;15.25;;;6.43;;
25657;SDS011;13517;59.320;18.042;2022-12-29T10:04:56;16.73;;;6.07;;
25657;SDS011;13517;59.320;18.042;2022-12-29T10:10:40;24.13;;;7.57;;
25657;SDS011;13517;59.320;18.042;2022-12-29T10:16:09;19.77;;;9.18;;
25657;SDS011;13517;59.320;18.042;2022-12-29T10:21:23;15.20;;;8.65;;
25657;SDS011;13517;59.320;18.042;2022-12-29T10:24:00;25.90;;;10.23;;
25657;SDS011;13517;59.320;18.042;2022-12-29T10:26:31;18.35;;;7.90;;
25657;SDS011;13517;59.320;18.042;2022-12-29T10:29:04;20.95;;;7.45;;
25657;SDS011;13517;59.320;18.042;2022-12-29T10:31:33;17.02;;;7.88;;
25657;SDS011;13517;59.320;18.042;2022-12-29T10:34:06;17.17;;;7.43;;
25657;SDS011;13517;59.320;18.042;2022-12-29T10:36:44;22.75;;;6.63;;
25657;SDS011;13517;59.320;18.042;2022-12-29T10:41:48;25.08;;;10.70;;
25657;SDS011;13517;59.320;18.042;2022-12-29T10:44:18;19.58;;;9.85;;
25657;SDS011;13517;59.320;18.042;2022-12-29T10:46:47;16.15;;;7.00;;
25657;SDS011;13517;59.320;18.042;2022-12-29T10:49:20;16.20;;;5.63;;
25657;SDS011;13517;59.320;18.042;2022-12-29T10:51:46;12.77;;;5.82;;
25657;SDS011;13517;59.320;18.042;2022-12-29T10:56:47;11.50;;;5.22;;
25657;SDS011;13517;59.320;18.042;2022-12-29T10:59:23;9.38;;;4.80;;
25657;SDS011;13517;59.320;18.042;2022-12-29T11:01:56;9.52;;;5.15;;
25657;SDS011;13517;59.320;18.042;2022-12-29T11:04:35;9.43;;;4.75;;
25657;SDS011;13517;59.320;18.042;2022-12-29T11:07:05;10.15;;;4.55;;
25657;SDS011;13517;59.320;18.042;2022-12-29T11:09:33;14.40;;;5.28;;
25657;SDS011;13517;59.320;18.042;2022-12-29T11:12:15;7.88;;;4.22;;
25657;SDS011;13517;59.320;18.042;2022-12-29T11:14:47;9.55;;;4.25;;
25657;SDS011;13517;59.320;18.042;2022-12-29T11:17:26;10.65;;;4.15;;
25657;SDS011;13517;59.320;18.042;2022-12-29T11:19:52;9.20;;;4.55;;
25657;SDS011;13517;59.320;18.042;2022-12-29T11:22:22;5.38;;;3.70;;
25657;SDS011;13517;59.320;18.042;2022-12-29T11:24:50;5.65;;;2.97;;
25657;SDS011;13517;59.320;18.042;2022-12-29T11:27:19;6.50;;;4.03;;
25657;SDS011;13517;59.320;18.042;2022-12-29T11:30:00;3.95;;;2.80;;
25657;SDS011;13517;59.320;18.042;2022-12-29T11:32:26;6.60;;;3.38;;
25657;SDS011;13517;59.320;18.042;2022-12-29T11:34:57;5.78;;;3.30;;
25657;SDS011;13517;59.320;18.042;2022-12-29T11:40:15;7.80;;;3.25;;
25657;SDS011;13517;59.320;18.042;2022-12-29T11:45:33;4.30;;;3.08;;
25657;SDS011;13517;59.320;18.042;2022-12-29T11:48:13;6.72;;;3.72;;
25657;SDS011;13517;59.320;18.042;2022-12-29T11:50:48;6.15;;;3.65;;
25657;SDS011;13517;59.320;18.042;2022-12-29T11:53:20;5.60;;;3.70;;
25657;SDS011;13517;59.320;18.042;2022-12-29T11:55:58;10.68;;;5.80;;
25657;SDS011;13517;59.320;18.042;2022-12-29T11:58:36;8.90;;;4.40;;
25657;SDS011;13517;59.320;18.042;2022-12-29T12:03:35;7.43;;;4.05;;
25657;SDS011;13517;59.320;18.042;2022-12-29T12:06:05;9.50;;;4.90;;
25657;SDS011;13517;59.320;18.042;2022-12-29T12:11:15;9.88;;;4.88;;
25657;SDS011;13517;59.320;18.042;2022-12-29T12:14:14;9.77;;;4.45;;
25657;SDS011;13517;59.320;18.042;2022-12-29T12:16:48;7.03;;;4.27;;
25657;SDS011;13517;59.320;18.042;2022-12-29T12:19:42;12.63;;;5.60;;
25657;SDS011;13517;59.320;18.042;2022-12-29T12:22:31;8.57;;;4.15;;
25657;SDS011;13517;59.320;18.042;2022-12-29T12:24:58;7.97;;;4.72;;
25657;SDS011;13517;59.320;18.042;2022-12-29T12:30:10;7.75;;;3.80;;
25657;SDS011;13517;59.320;18.042;2022-12-29T12:32:44;6.65;;;3.95;;
25657;SDS011;13517;59.320;18.042;2022-12-29T12:40:59;5.82;;;4.00;;
25657;SDS011;13517;59.320;18.042;2022-12-29T12:55:05;7.07;;;5.10;;
25657;SDS011;13517;59.320;18.042;2022-12-29T13:00:29;7.25;;;4.18;;
25657;SDS011;13517;59.320;18.042;2022-12-29T13:16:04;9.25;;;4.40;;
25657;SDS011;13517;59.320;18.042;2022-12-29T13:18:55;7.05;;;4.88;;
25657;SDS011;13517;59.320;18.042;2022-12-29T13:21:47;11.80;;;5.40;;
25657;SDS011;13517;59.320;18.042;2022-12-29T13:27:17;7.88;;;5.53;;
25657;SDS011;13517;59.320;18.042;2022-12-29T13:37:52;7.07;;;4.80;;
25657;SDS011;13517;59.320;18.042;2022-12-29T13:40:23;11.55;;;5.00;;
25657;SDS011;13517;59.320;18.042;2022-12-29T13:42:50;7.63;;;3.95;;
25657;SDS011;13517;59.320;18.042;2022-12-29T13:45:19;5.82;;;4.03;;
25657;SDS011;13517;59.320;18.042;2022-12-29T13:50:21;5.10;;;3.42;;
25657;SDS011;13517;59.320;18.042;2022-12-29T13:58:46;5.82;;;3.38;;
25657;SDS011;13517;59.320;18.042;2022-12-29T14:04:13;7.15;;;3.53;;
25657;SDS011;13517;59.320;18.042;2022-12-29T14:06:46;10.20;;;3.58;;
25657;SDS011;13517;59.320;18.042;2022-12-29T14:14:48;7.72;;;3.70;;
25657;SDS011;13517;59.320;18.042;2022-12-29T14:17:16;7.93;;;3.67;;
25657;SDS011;13517;59.320;18.042;2022-12-29T14:19:45;5.18;;;3.65;;
25657;SDS011;13517;59.320;18.042;2022-12-29T14:22:22;9.75;;;5.28;;
25657;SDS011;13517;59.320;18.042;2022-12-29T14:24:49;7.90;;;4.63;;
25657;SDS011;13517;59.320;18.042;2022-12-29T14:34:55;6.00;;;4.27;;
25657;SDS011;13517;59.320;18.042;2022-12-29T14:37:26;6.03;;;3.92;;
25657;SDS011;13517;59.320;18.042;2022-12-29T14:40:04;11.63;;;3.97;;
25657;SDS011;13517;59.320;18.042;2022-12-29T14:42:29;6.03;;;4.07;;
25657;SDS011;13517;59.320;18.042;2022-12-29T14:44:58;7.05;;;4.25;;
25657;SDS011;13517;59.320;18.042;2022-12-29T14:49:56;8.95;;;5.05;;
25657;SDS011;13517;59.320;18.042;2022-12-29T14:52:29;11.90;;;5.63;;
25657;SDS011;13517;59.320;18.042;2022-12-29T14:54:59;10.48;;;5.40;;
25657;SDS011;13517;59.320;18.042;2022-12-29T14:57:59;15.82;;;6.90;;
25657;SDS011;13517;59.320;18.042;2022-12-29T15:00:27;31.38;;;11.02;;
25657;SDS011;13517;59.320;18.042;2022-12-29T15:05:35;16.80;;;8.93;;
25657;SDS011;13517;59.320;18.042;2022-12-29T15:08:05;18.35;;;9.05;;
25657;SDS011;13517;59.320;18.042;2022-12-29T15:10:34;17.48;;;8.90;;
25657;SDS011;13517;59.320;18.042;2022-12-29T15:13:04;20.73;;;9.65;;
25657;SDS011;13517;59.320;18.042;2022-12-29T15:15:39;19.55;;;9.73;;
25657;SDS011;13517;59.320;18.042;2022-12-29T15:18:14;20.80;;;10.40;;
25657;SDS011;13517;59.320;18.042;2022-12-29T15:20:46;20.65;;;9.85;;
25657;SDS011;13517;59.320;18.042;2022-12-29T15:23:19;17.75;;;9.98;;
25657;SDS011;13517;59.320;18.042;2022-12-29T15:26:04;17.88;;;9.07;;
25657;SDS011;13517;59.320;18.042;2022-12-29T15:28:38;18.52;;;9.27;;
25657;SDS011;13517;59.320;18.042;2022-12-29T15:31:11;20.85;;;9.55;;
25657;SDS011;13517;59.320;18.042;2022-12-29T15:33:39;16.45;;;8.52;;
25657;SDS011;13517;59.320;18.042;2022-12-29T15:36:11;14.82;;;8.23;;
25657;SDS011;13517;59.320;18.042;2022-12-29T15:38:38;13.98;;;7.95;;
25657;SDS011;13517;59.320;18.042;2022-12-29T15:41:05;13.52;;;7.95;;
25657;SDS011;13517;59.320;18.042;2022-12-29T15:46:10;15.07;;;7.75;;
25657;SDS011;13517;59.320;18.042;2022-12-29T15:48:36;13.18;;;6.70;;
25657;SDS011;13517;59.320;18.042;2022-12-29T15:51:09;12.18;;;6.72;;
25657;SDS011;13517;59.320;18.042;2022-12-29T15:53:48;11.55;;;5.80;;
25657;SDS011;13517;59.320;18.042;2022-12-29T15:56:16;11.55;;;6.05;;
25657;SDS011;13517;59.320;18.042;2022-12-29T15:58:47;13.20;;;6.18;;
25657;SDS011;13517;59.320;18.042;2022-12-29T16:01:19;8.93;;;5.15;;
25657;SDS011;13517;59.320;18.042;2022-12-29T16:04:03;8.57;;;5.25;;
25657;SDS011;13517;59.320;18.042;2022-12-29T16:09:02;9.23;;;5.22;;
25657;SDS011;13517;59.320;18.042;2022-12-29T16:14:48;17.75;;;6.03;;
25657;SDS011;13517;59.320;18.042;2022-12-29T16:17:18;9.90;;;5.10;;
25657;SDS011;13517;59.320;18.042;2022-12-29T16:19:52;9.27;;;5.07;;
25657;SDS011;13517;59.320;18.042;2022-12-29T16:22:29;17.92;;;7.47;;
25657;SDS011;13517;59.320;18.042;2022-12-29T16:24:56;11.55;;;6.55;;
25657;SDS011;13517;59.320;18.042;2022-12-29T16:27:30;17.17;;;6.80;;
25657;SDS011;13517;59.320;18.042;2022-12-29T16:30:02;12.05;;;6.18;;
25657;SDS011;13517;59.320;18.042;2022-12-29T16:32:31;16.13;;;9.25;;
25657;SDS011;13517;59.320;18.042;2022-12-29T16:37:37;17.92;;;9.25;;
25657;SDS011;13517;59.320;18.042;2022-12-29T16:42:58;14.73;;;8.95;;
25657;SDS011;13517;59.320;18.042;2022-12-29T16:50:48;11.65;;;7.63;;
25657;SDS011;13517;59.320;18.042;2022-12-29T16:53:24;15.73;;;8.07;;
25657;SDS011;13517;59.320;18.042;2022-12-29T16:55:52;21.17;;;7.80;;
25657;SDS011;13517;59.320;18.042;2022-12-29T16:58:24;13.27;;;8.38;;
25657;SDS011;13517;59.320;18.042;2022-12-29T17:00:55;17.05;;;8.25;;
25657;SDS011;13517;59.320;18.042;2022-12-29T17:03:23;11.20;;;7.65;;
25657;SDS011;13517;59.320;18.042;2022-12-29T17:05:56;17.70;;;8.33;;
25657;SDS011;13517;59.320;18.042;2022-12-29T17:08:21;15.93;;;8.02;;
25657;SDS011;13517;59.320;18.042;2022-12-29T17:10:50;19.48;;;7.80;;
25657;SDS011;13517;59.320;18.042;2022-12-29T17:13:36;13.20;;;8.10;;
25657;SDS011;13517;59.320;18.042;2022-12-29T17:16:02;23.30;;;7.68;;
25657;SDS011;13517;59.320;18.042;2022-12-29T17:18:28;24.58;;;7.85;;
25657;SDS011;13517;59.320;18.042;2022-12-29T17:20:54;16.30;;;8.10;;
25657;SDS011;13517;59.320;18.042;2022-12-29T17:23:19;17.30;;;7.78;;
25657;SDS011;13517;59.320;18.042;2022-12-29T17:25:44;17.83;;;7.78;;
25657;SDS011;13517;59.320;18.042;2022-12-29T17:31:02;13.57;;;7.53;;
25657;SDS011;13517;59.320;18.042;2022-12-29T17:33:34;20.42;;;7.43;;
25657;SDS011;13517;59.320;18.042;2022-12-29T17:36:02;13.45;;;6.15;;